地図

経路データ

SID SEASON NUMBER BASIN SUBBASIN NAME ISO_TIME NATURE LAT LON WMO_WIND WMO_PRES WMO_AGENCY TRACK_TYPE DIST2LAND LANDFALL IFLAG USA_AGENCY USA_ATCF_ID USA_LAT USA_LON USA_RECORD USA_STATUS USA_WIND USA_PRES USA_SSHS USA_R34_NE USA_R34_SE USA_R34_SW USA_R34_NW USA_R50_NE USA_R50_SE USA_R50_SW USA_R50_NW USA_R64_NE USA_R64_SE USA_R64_SW USA_R64_NW USA_POCI USA_ROCI USA_RMW USA_EYE TOKYO_LAT TOKYO_LON TOKYO_GRADE TOKYO_WIND TOKYO_PRES TOKYO_R50_DIR TOKYO_R50_LONG TOKYO_R50_SHORT TOKYO_R30_DIR TOKYO_R30_LONG TOKYO_R30_SHORT TOKYO_LAND CMA_LAT CMA_LON CMA_CAT CMA_WIND CMA_PRES HKO_LAT HKO_LON HKO_CAT HKO_WIND HKO_PRES NEWDELHI_LAT NEWDELHI_LON NEWDELHI_GRADE NEWDELHI_WIND NEWDELHI_PRES NEWDELHI_CI NEWDELHI_DP NEWDELHI_POCI REUNION_LAT REUNION_LON REUNION_TYPE REUNION_WIND REUNION_PRES REUNION_TNUM REUNION_CI REUNION_RMW REUNION_R34_NE REUNION_R34_SE REUNION_R34_SW REUNION_R34_NW REUNION_R50_NE REUNION_R50_SE REUNION_R50_SW REUNION_R50_NW REUNION_R64_NE REUNION_R64_SE REUNION_R64_SW REUNION_R64_NW BOM_LAT BOM_LON BOM_TYPE BOM_WIND BOM_PRES BOM_TNUM BOM_CI BOM_RMW BOM_R34_NE BOM_R34_SE BOM_R34_SW BOM_R34_NW BOM_R50_NE BOM_R50_SE BOM_R50_SW BOM_R50_NW BOM_R64_NE BOM_R64_SE BOM_R64_SW BOM_R64_NW BOM_ROCI BOM_POCI BOM_EYE BOM_POS_METHOD BOM_PRES_METHOD NADI_LAT NADI_LON NADI_CAT NADI_WIND NADI_PRES WELLINGTON_LAT WELLINGTON_LON WELLINGTON_WIND WELLINGTON_PRES DS824_LAT DS824_LON DS824_STAGE DS824_WIND DS824_PRES TD9636_LAT TD9636_LON TD9636_STAGE TD9636_WIND TD9636_PRES TD9635_LAT TD9635_LON TD9635_WIND TD9635_PRES TD9635_ROCI NEUMANN_LAT NEUMANN_LON NEUMANN_CLASS NEUMANN_WIND NEUMANN_PRES MLC_LAT MLC_LON MLC_CLASS MLC_WIND MLC_PRES USA_GUST BOM_GUST BOM_GUST_PER REUNION_GUST REUNION_GUST_PER USA_SEAHGT USA_SEARAD_NE USA_SEARAD_SE USA_SEARAD_SW USA_SEARAD_NW STORM_SPEED STORM_DIR
1908285N13129 1908 45 WP MM NOT_NAMED 1908-10-10 16:00:00 NR 13.0000 129.000 main 390 372 __________O___ -1 13.0000 129.000 7 7 291
1908285N13129 1908 45 WP MM NOT_NAMED 1908-10-10 18:00:00 NR 13.0861 128.774 main 372 334 __________P___ -1 13.0861 128.774 7 7 291
1908285N13129 1908 45 WP MM NOT_NAMED 1908-10-10 21:00:00 NR 13.2202 128.425 main 334 307 __________P___ -1 13.2202 128.425 7 8 292
1908285N13129 1908 45 WP MM NOT_NAMED 1908-10-11 00:00:00 NR 13.3679 128.054 main 312 270 __________P___ -1 13.3679 128.054 7 8 293
1908285N13129 1908 45 WP MM NOT_NAMED 1908-10-11 03:00:00 NR 13.5373 127.646 main 270 267 __________P___ -1 13.5373 127.646 7 9 293
1908285N13129 1908 45 WP MM NOT_NAMED 1908-10-11 04:00:00 NR 13.6000 127.500 main 267 249 __________O___ -1 13.6000 127.500 7 10 294
1908285N13129 1908 45 WP MM NOT_NAMED 1908-10-11 06:00:00 NR 13.7356 127.190 main 249 225 __________P___ -1 13.7356 127.190 7 10 295
1908285N13129 1908 45 WP MM NOT_NAMED 1908-10-11 09:00:00 NR 13.9579 126.693 main 233 197 __________P___ -1 13.9579 126.693 7 11 295
1908285N13129 1908 45 WP MM NOT_NAMED 1908-10-11 12:00:00 NR 14.1918 126.178 main 197 151 __________P___ -1 14.1918 126.178 7 11 295
1908285N13129 1908 45 WP MM NOT_NAMED 1908-10-11 15:00:00 NR 14.4247 125.666 main 151 136 __________P___ -1 14.4247 125.666 7 11 295
1908285N13129 1908 45 WP MM NOT_NAMED 1908-10-11 16:00:00 NR 14.5000 125.500 main 136 116 __________O___ -1 14.5000 125.500 7 10 294
1908285N13129 1908 45 WP MM NOT_NAMED 1908-10-11 18:00:00 NR 14.6389 125.178 main 116 99 __________P___ -1 14.6389 125.178 7 10 294
1908285N13129 1908 45 WP MM NOT_NAMED 1908-10-11 21:00:00 NR 14.8411 124.707 main 99 103 __________P___ -1 14.8411 124.707 7 10 294
1908285N13129 1908 45 WP MM NOT_NAMED 1908-10-12 00:00:00 NR 15.0386 124.257 main 111 111 __________P___ -1 15.0386 124.257 7 9 295
1908285N13129 1908 45 WP MM NOT_NAMED 1908-10-12 03:00:00 NR 15.2345 123.834 main 138 138 __________P___ -1 15.2345 123.834 7 9 296
1908285N13129 1908 45 WP MM NOT_NAMED 1908-10-12 04:00:00 NR 15.3000 123.700 main 150 144 __________O___ -1 15.3000 123.700 3 9 298
1908285N13129 1908 45 WP MM NOT_NAMED 1908-10-12 06:00:00 NR 15.4331 123.438 main 144 117 __________P___ -1 15.4331 123.438 3 8 299
1908285N13129 1908 45 WP MM NOT_NAMED 1908-10-12 09:00:00 NR 15.6329 123.071 main 117 69 __________P___ -1 15.6329 123.071 3 8 300
1908285N13129 1908 45 WP MM NOT_NAMED 1908-10-12 12:00:00 NR 15.8330 122.729 main 69 30 __________P___ -1 15.8330 122.729 3 8 302
1908285N13129 1908 45 WP MM NOT_NAMED 1908-10-12 15:00:00 NR 16.0332 122.405 main 30 15 __________P___ -1 16.0332 122.405 3 7 303
1908285N13129 1908 45 WP MM NOT_NAMED 1908-10-12 16:00:00 NR 16.1000 122.300 main 15 0 __________O___ -1 16.1000 122.300 4 7 302
1908285N13129 1908 45 WP MM NOT_NAMED 1908-10-12 18:00:00 NR 16.2093 122.111 main 0 0 __________P___ -1 16.2093 122.111 4 6 302
1908285N13129 1908 45 WP MM NOT_NAMED 1908-10-12 21:00:00 NR 16.3729 121.842 main 0 0 __________P___ -1 16.3729 121.842 4 6 304
1908285N13129 1908 45 WP MM NOT_NAMED 1908-10-13 00:00:00 NR 16.5613 121.558 main 0 0 __________P___ -1 16.5613 121.558 4 7 306
1908285N13129 1908 45 WP MM NOT_NAMED 1908-10-13 03:00:00 NR 16.8028 121.227 main 0 0 __________P___ -1 16.8028 121.227 4 8 308
1908285N13129 1908 45 WP MM NOT_NAMED 1908-10-13 04:00:00 NR 16.9000 121.100 main 0 0 __________O___ -1 16.9000 121.100 4 10 307
1908285N13129 1908 45 WP MM NOT_NAMED 1908-10-13 06:00:00 NR 17.1192 120.796 main 0 0 __________P___ -1 17.1192 120.796 4 12 308
1908285N13129 1908 45 WP MM NOT_NAMED 1908-10-13 09:00:00 NR 17.5042 120.284 main 10 10 __________P___ -1 17.5042 120.284 4 13 309
1908285N13129 1908 45 WP MM NOT_NAMED 1908-10-13 12:00:00 NR 17.9455 119.733 main 71 77 __________P___ -1 17.9455 119.733 4 14 311
1908285N13129 1908 45 WP MM NOT_NAMED 1908-10-13 15:00:00 NR 18.4306 119.179 main 141 154 __________P___ -1 18.4306 119.179 4 14 313
1908285N13129 1908 45 WP MM NOT_NAMED 1908-10-13 16:00:00 NR 18.6000 119.000 main 167 167 __________O___ -1 18.6000 119.000 4 15 315
1908285N13129 1908 45 WP MM NOT_NAMED 1908-10-13 18:00:00 NR 18.9487 118.641 main 218 221 __________P___ -1 18.9487 118.641 4 15 317
1908285N13129 1908 45 WP MM NOT_NAMED 1908-10-13 21:00:00 NR 19.5036 118.114 main 290 290 __________P___ -1 19.5036 118.114 4 15 320
1908285N13129 1908 45 WP MM NOT_NAMED 1908-10-14 00:00:00 NR 20.0715 117.629 main 333 267 __________P___ -1 20.0715 117.629 4 14 323
1908285N13129 1908 45 WP MM NOT_NAMED 1908-10-14 03:00:00 NR 20.6241 117.216 main 267 242 __________P___ -1 20.6241 117.216 4 13 326
1908285N13129 1908 45 WP MM NOT_NAMED 1908-10-14 04:00:00 NR 20.8000 117.100 main 242 205 __________O___ -1 20.8000 117.100 4 12 328
1908285N13129 1908 45 WP MM NOT_NAMED 1908-10-14 06:00:00 NR 21.1170 116.890 main 205 146 __________P___ -1 21.1170 116.890 4 11 331
1908285N13129 1908 45 WP MM NOT_NAMED 1908-10-14 09:00:00 NR 21.5678 116.652 main 146 98 __________P___ -1 21.5678 116.652 4 10 338
1908285N13129 1908 45 WP MM NOT_NAMED 1908-10-14 12:00:00 NR 22.0053 116.496 main 98 54 __________P___ -1 22.0053 116.496 4 9 346
1908285N13129 1908 45 WP MM NOT_NAMED 1908-10-14 15:00:00 NR 22.4481 116.413 main 54 35 __________P___ -1 22.4481 116.413 4 9 352
1908285N13129 1908 45 WP MM NOT_NAMED 1908-10-14 16:00:00 NR 22.6000 116.400 main 35 10 __________O___ -1 22.6000 116.400 4 9 0
1908285N13129 1908 45 WP MM NOT_NAMED 1908-10-14 18:00:00 NR 22.9132 116.393 main 10 0 __________P___ -1 22.9132 116.393 4 10 1
1908285N13129 1908 45 WP MM NOT_NAMED 1908-10-14 21:00:00 NR 23.4029 116.421 main 0 0 __________P___ -1 23.4029 116.421 4 10 5
1908285N13129 1908 45 WP MM NOT_NAMED 1908-10-15 00:00:00 NR 23.9100 116.485 main 0 0 __________P___ -1 23.9100 116.485 4 10 8
1908285N13129 1908 45 WP MM NOT_NAMED 1908-10-15 03:00:00 NR 24.4268 116.570 main 0 0 __________P___ -1 24.4268 116.570 4 11 9
1908285N13129 1908 45 WP MM NOT_NAMED 1908-10-15 04:00:00 NR 24.6000 116.600 main 0 __________O___ -1 24.6000 116.600 7 11 0

デジタル台風データ・検索

IBTrACS Databaseについて

本データベースは、米国NOAAが公開する1842年以降の世界の熱帯低気圧のベストトラックデータアーカイブInternational Best Track Archive for Climate Stewardship (IBTrACS)を、ウェブで閲覧しやすい形式に変換したものです。

最終更新日:2021-10-21